createdAt,value
2017-08-03T00:00:50.982Z,7.53
2017-08-03T00:03:20.143Z,9.50
2017-08-03T00:05:47.342Z,8.33
2017-08-03T00:08:14.548Z,7.47
2017-08-03T00:10:41.760Z,7.63
2017-08-03T00:13:08.965Z,7.13
2017-08-03T00:15:36.181Z,6.80
2017-08-03T00:18:03.405Z,8.10
2017-08-03T00:20:31.542Z,8.13
2017-08-03T00:22:58.758Z,7.70
2017-08-03T00:25:25.960Z,7.57
2017-08-03T00:27:53.184Z,8.07
2017-08-03T00:30:20.390Z,7.50
2017-08-03T00:32:47.601Z,7.23
2017-08-03T00:35:14.800Z,6.67
2017-08-03T00:37:42.006Z,6.90
2017-08-03T00:40:09.233Z,7.40
2017-08-03T00:42:37.393Z,6.67
2017-08-03T00:45:04.593Z,6.10
2017-08-03T00:47:31.800Z,7.00
2017-08-03T00:49:59.936Z,7.23
2017-08-03T00:52:27.169Z,7.30
2017-08-03T00:54:54.368Z,6.80
2017-08-03T00:57:22.980Z,7.13
2017-08-03T00:59:50.194Z,6.30
2017-08-03T01:02:17.396Z,7.07
2017-08-03T01:04:44.621Z,6.63
2017-08-03T01:07:11.829Z,6.77
2017-08-03T01:09:39.056Z,6.90
2017-08-03T01:12:06.248Z,6.60
2017-08-03T01:14:33.495Z,7.30
2017-08-03T01:17:00.716Z,7.10
2017-08-03T01:19:27.916Z,6.30
2017-08-03T01:21:56.067Z,7.47
2017-08-03T01:24:23.273Z,6.20
2017-08-03T01:26:50.476Z,6.67
2017-08-03T01:29:17.700Z,6.47
2017-08-03T01:31:44.910Z,7.37
2017-08-03T01:34:12.115Z,6.93
2017-08-03T01:36:39.317Z,6.30
2017-08-03T01:39:06.526Z,6.73
2017-08-03T01:41:35.682Z,6.97
2017-08-03T01:44:02.877Z,6.40
2017-08-03T01:46:29.820Z,6.03
2017-08-03T01:48:57.020Z,7.03
2017-08-03T01:51:24.229Z,7.00
2017-08-03T01:53:53.424Z,6.87
2017-08-03T01:56:20.625Z,6.57
2017-08-03T01:58:47.833Z,6.73
2017-08-03T02:01:15.033Z,5.60
2017-08-03T02:03:42.239Z,6.97
2017-08-03T02:06:09.461Z,7.50
2017-08-03T02:08:37.637Z,6.07
2017-08-03T02:11:04.840Z,6.10
2017-08-03T02:13:32.045Z,6.20
2017-08-03T02:15:58.993Z,5.93
2017-08-03T02:18:26.229Z,6.80
2017-08-03T02:20:53.432Z,6.40
2017-08-03T02:23:20.636Z,6.80
2017-08-03T02:25:47.846Z,6.43
2017-08-03T02:28:15.993Z,5.83
2017-08-03T02:30:43.225Z,6.40
2017-08-03T02:33:10.428Z,5.97
2017-08-03T02:35:37.632Z,6.00
2017-08-03T02:38:04.835Z,5.70
2017-08-03T02:40:32.044Z,6.87
2017-08-03T02:43:01.223Z,6.37
2017-08-03T02:45:28.437Z,6.97
2017-08-03T02:47:55.646Z,6.27
2017-08-03T02:50:23.804Z,6.00
2017-08-03T02:52:51.009Z,7.03
2017-08-03T02:55:18.234Z,6.93
2017-08-03T02:57:45.437Z,6.27
2017-08-03T03:00:12.632Z,5.20
2017-08-03T03:02:39.833Z,6.93
2017-08-03T03:05:07.037Z,5.93
2017-08-03T03:07:34.264Z,6.00
2017-08-03T03:10:01.489Z,5.70
2017-08-03T03:12:28.692Z,5.80
2017-08-03T03:14:55.880Z,5.57
2017-08-03T03:17:24.008Z,6.77
2017-08-03T03:19:51.232Z,5.57
2017-08-03T03:22:18.452Z,5.73
2017-08-03T03:24:45.681Z,6.60
2017-08-03T03:27:12.909Z,6.53
2017-08-03T03:29:40.133Z,6.23
2017-08-03T03:32:07.369Z,6.17
2017-08-03T03:34:34.590Z,6.13
2017-08-03T03:37:02.725Z,6.37
2017-08-03T03:39:29.941Z,5.87
2017-08-03T03:41:57.612Z,6.00
2017-08-03T03:44:24.825Z,6.00
2017-08-03T03:46:52.028Z,5.83
2017-08-03T03:49:19.234Z,6.17
2017-08-03T03:51:46.434Z,5.97
2017-08-03T03:54:13.634Z,7.53
2017-08-03T03:56:40.838Z,6.10
2017-08-03T03:59:08.041Z,6.70
2017-08-03T04:01:35.269Z,6.20
2017-08-03T04:04:02.473Z,6.27
2017-08-03T04:06:29.679Z,6.63
2017-08-03T04:08:56.904Z,6.23
2017-08-03T04:11:24.112Z,5.80
2017-08-03T04:13:51.345Z,6.37
2017-08-03T04:16:18.549Z,6.27
2017-08-03T04:18:45.748Z,5.50
2017-08-03T04:21:12.949Z,5.63
2017-08-03T04:23:40.148Z,6.03
2017-08-03T04:26:09.360Z,5.53
2017-08-03T04:28:36.576Z,6.37
2017-08-03T04:31:03.781Z,6.10
2017-08-03T04:33:30.984Z,5.20
2017-08-03T04:35:58.190Z,5.77
2017-08-03T04:38:25.408Z,5.57
2017-08-03T04:40:52.628Z,5.10
2017-08-03T04:43:20.788Z,5.40
2017-08-03T04:45:48.004Z,5.50
2017-08-03T04:48:15.201Z,5.30
2017-08-03T04:50:42.429Z,5.40
2017-08-03T04:53:09.640Z,5.37
2017-08-03T04:55:36.839Z,5.10
2017-08-03T04:58:04.052Z,6.30
2017-08-03T05:00:31.258Z,6.60
2017-08-03T05:02:58.484Z,5.70
2017-08-03T05:05:25.709Z,5.93
2017-08-03T05:07:52.909Z,5.33
2017-08-03T05:10:20.104Z,5.83
2017-08-03T05:12:47.316Z,4.80
2017-08-03T05:15:14.547Z,5.80
2017-08-03T05:17:41.751Z,5.50
2017-08-03T05:20:08.960Z,5.17
2017-08-03T05:22:36.184Z,5.70
2017-08-03T05:25:03.417Z,5.40
2017-08-03T05:27:30.641Z,6.10
2017-08-03T05:29:57.853Z,5.30
2017-08-03T05:32:25.068Z,6.93
2017-08-03T05:34:52.276Z,5.80
2017-08-03T05:37:19.468Z,5.60
2017-08-03T05:39:46.696Z,5.00
2017-08-03T05:42:13.897Z,5.30
2017-08-03T05:44:41.098Z,6.00
2017-08-03T05:47:08.321Z,4.70
2017-08-03T05:49:35.537Z,6.10
2017-08-03T05:52:02.757Z,5.70
2017-08-03T05:54:29.954Z,5.80
2017-08-03T05:56:57.165Z,5.67
2017-08-03T05:59:24.376Z,5.93
2017-08-03T06:01:52.499Z,5.83
2017-08-03T06:04:19.734Z,6.60
2017-08-03T06:06:46.938Z,6.43
2017-08-03T06:09:14.137Z,5.03
2017-08-03T06:11:41.331Z,5.40
2017-08-03T06:14:08.535Z,5.80
2017-08-03T06:16:35.761Z,5.43
2017-08-03T06:19:02.966Z,5.70
2017-08-03T06:21:30.198Z,6.00
2017-08-03T06:23:57.404Z,4.97
2017-08-03T06:26:24.600Z,6.50
2017-08-03T06:28:51.824Z,5.23
2017-08-03T06:31:19.026Z,5.73
2017-08-03T06:33:46.244Z,5.63
2017-08-03T06:36:14.416Z,5.53
2017-08-03T06:38:41.626Z,6.10
2017-08-03T06:41:08.848Z,5.73
2017-08-03T06:43:36.052Z,5.63
2017-08-03T06:46:03.257Z,5.50
2017-08-03T06:48:30.465Z,5.63
2017-08-03T06:50:57.664Z,5.57
2017-08-03T06:53:24.889Z,5.30
2017-08-03T06:55:53.025Z,6.33
2017-08-03T06:58:20.230Z,5.53
2017-08-03T07:00:47.440Z,5.57
2017-08-03T07:03:15.598Z,5.43
2017-08-03T07:05:42.822Z,5.13
2017-08-03T07:08:10.020Z,5.57
2017-08-03T07:10:37.220Z,5.23
2017-08-03T07:13:04.449Z,5.60
2017-08-03T07:15:31.650Z,5.30
2017-08-03T07:17:58.872Z,6.30
2017-08-03T07:20:26.094Z,4.53
2017-08-03T07:22:53.288Z,5.00
2017-08-03T07:25:20.488Z,5.37
2017-08-03T07:27:48.648Z,5.07
2017-08-03T07:30:15.863Z,5.40
2017-08-03T07:32:43.069Z,5.97
2017-08-03T07:35:10.276Z,6.10
2017-08-03T07:37:37.476Z,4.90
2017-08-03T07:40:04.685Z,6.23
2017-08-03T07:42:31.905Z,5.03
2017-08-03T07:44:59.103Z,5.57
2017-08-03T07:47:26.122Z,6.33
2017-08-03T07:49:53.324Z,5.27
2017-08-03T07:52:20.537Z,5.80
2017-08-03T07:54:47.768Z,5.50
2017-08-03T07:57:14.969Z,5.27
2017-08-03T07:59:42.174Z,5.30
2017-08-03T08:02:09.377Z,5.43
2017-08-03T08:04:36.586Z,5.13
2017-08-03T08:07:03.809Z,4.87
2017-08-03T08:09:31.020Z,5.47
2017-08-03T08:11:58.220Z,4.90
2017-08-03T08:14:25.242Z,5.27
2017-08-03T08:16:52.440Z,5.00
2017-08-03T08:19:21.611Z,5.63
2017-08-03T08:21:48.830Z,5.10
2017-08-03T08:24:16.028Z,5.27
2017-08-03T08:26:43.240Z,5.20
2017-08-03T08:29:10.444Z,4.93
2017-08-03T08:31:39.609Z,5.53
2017-08-03T08:34:06.816Z,5.40
2017-08-03T08:36:34.017Z,4.37
2017-08-03T08:39:01.225Z,4.67
2017-08-03T08:41:28.433Z,5.17
2017-08-03T08:43:55.662Z,4.07
2017-08-03T08:46:22.869Z,5.10
2017-08-03T08:48:50.072Z,4.73
2017-08-03T08:51:17.280Z,4.40
2017-08-03T08:53:44.481Z,4.30
2017-08-03T08:56:11.706Z,5.00
2017-08-03T08:58:38.948Z,5.23
2017-08-03T09:01:06.148Z,4.73
2017-08-03T09:03:33.355Z,4.90
2017-08-03T09:06:00.561Z,4.90
2017-08-03T09:08:28.980Z,4.57
2017-08-03T09:10:56.188Z,5.90
2017-08-03T09:13:23.393Z,5.47
2017-08-03T09:15:50.597Z,4.43
2017-08-03T09:18:17.803Z,5.40
2017-08-03T09:20:45.037Z,5.13
2017-08-03T09:23:12.246Z,5.00
2017-08-03T09:25:39.453Z,5.00
2017-08-03T09:28:06.660Z,4.53
2017-08-03T09:30:33.865Z,4.60
2017-08-03T09:33:01.093Z,4.97
2017-08-03T09:35:28.295Z,5.30
2017-08-03T09:37:55.496Z,4.80
2017-08-03T09:40:22.696Z,4.57
2017-08-03T09:42:49.905Z,5.20
2017-08-03T09:45:17.137Z,5.90
2017-08-03T09:47:44.345Z,5.20
2017-08-03T09:50:12.238Z,5.47
2017-08-03T09:52:39.453Z,5.03
2017-08-03T09:55:06.669Z,5.40
2017-08-03T09:57:35.840Z,4.33
2017-08-03T10:00:03.053Z,5.07
2017-08-03T10:02:30.254Z,5.40
2017-08-03T10:04:57.496Z,6.07
2017-08-03T10:07:24.704Z,4.60
2017-08-03T10:09:51.912Z,5.17
2017-08-03T10:12:19.153Z,5.27
2017-08-03T10:14:47.092Z,4.80
2017-08-03T10:17:14.305Z,5.33
2017-08-03T10:19:41.530Z,5.40
2017-08-03T10:22:08.741Z,5.80
2017-08-03T10:24:35.948Z,5.63
2017-08-03T10:27:03.153Z,5.00
2017-08-03T10:29:30.848Z,5.10
2017-08-03T10:31:58.072Z,4.83
2017-08-03T10:34:25.276Z,5.20
2017-08-03T10:36:52.476Z,5.30
2017-08-03T10:39:19.686Z,6.00
2017-08-03T10:41:46.896Z,4.90
2017-08-03T10:44:16.068Z,4.73
2017-08-03T10:46:43.271Z,4.97
2017-08-03T10:49:11.424Z,5.57
2017-08-03T10:51:38.633Z,5.50
2017-08-03T10:54:05.845Z,5.30
2017-08-03T10:56:33.071Z,4.80
2017-08-03T10:59:00.293Z,5.20
2017-08-03T11:01:27.514Z,5.50
2017-08-03T11:03:54.726Z,5.30
2017-08-03T11:06:21.933Z,5.33
2017-08-03T11:08:49.158Z,5.23
2017-08-03T11:11:16.373Z,6.37
2017-08-03T11:13:44.515Z,5.20
2017-08-03T11:16:11.726Z,6.17
2017-08-03T11:18:38.945Z,4.93
2017-08-03T11:21:08.133Z,5.13
2017-08-03T11:23:35.341Z,4.53
2017-08-03T11:26:02.545Z,4.83
2017-08-03T11:28:29.764Z,5.00
2017-08-03T11:30:56.974Z,4.50
2017-08-03T11:33:25.985Z,4.77
2017-08-03T11:35:53.194Z,4.70
2017-08-03T11:38:20.405Z,4.70
2017-08-03T11:40:48.564Z,6.00
2017-08-03T11:43:15.769Z,5.20
2017-08-03T11:45:43.002Z,4.90
2017-08-03T11:48:10.213Z,5.73
2017-08-03T11:50:37.413Z,5.10
2017-08-03T11:53:04.624Z,5.20
2017-08-03T11:55:32.769Z,5.13
2017-08-03T11:57:59.993Z,4.97
2017-08-03T12:00:27.210Z,5.40
2017-08-03T12:02:54.421Z,4.83
2017-08-03T12:05:21.626Z,5.67
2017-08-03T12:07:48.837Z,5.60
2017-08-03T12:10:16.063Z,5.27
2017-08-03T12:12:43.260Z,4.90
2017-08-03T12:15:10.460Z,4.40
2017-08-03T12:17:37.669Z,5.10
2017-08-03T12:20:05.841Z,5.57
2017-08-03T12:22:33.069Z,5.50
2017-08-03T12:25:00.277Z,5.07
2017-08-03T12:27:28.422Z,4.60
2017-08-03T12:29:55.624Z,5.00
2017-08-03T12:32:22.829Z,5.53
2017-08-03T12:34:50.054Z,5.20
2017-08-03T12:37:18.211Z,4.83
2017-08-03T12:39:45.413Z,5.00
2017-08-03T12:42:12.617Z,4.87
2017-08-03T12:44:40.770Z,4.60
2017-08-03T12:47:07.997Z,4.60
2017-08-03T12:49:35.204Z,4.30
2017-08-03T12:52:02.409Z,4.60
2017-08-03T12:54:29.616Z,4.70
2017-08-03T12:56:56.640Z,3.87
2017-08-03T12:59:23.897Z,4.20
2017-08-03T13:01:52.046Z,4.37
2017-08-03T13:04:19.248Z,4.23
2017-08-03T13:06:46.456Z,4.40
2017-08-03T13:09:13.665Z,4.13
2017-08-03T13:11:40.884Z,4.60
2017-08-03T13:14:08.088Z,4.03
2017-08-03T13:16:35.299Z,3.47
2017-08-03T13:19:02.513Z,3.40
2017-08-03T13:21:29.721Z,3.80
2017-08-03T13:23:56.949Z,5.50
2017-08-03T13:26:24.152Z,4.13
2017-08-03T13:28:51.357Z,4.57
2017-08-03T13:31:18.562Z,4.10
2017-08-03T13:33:45.768Z,4.90
2017-08-03T13:36:14.953Z,3.67
2017-08-03T13:38:42.160Z,3.80
2017-08-03T13:41:09.373Z,5.27
2017-08-03T13:43:36.608Z,3.90
2017-08-03T13:46:03.824Z,4.83
2017-08-03T13:48:31.047Z,4.53
2017-08-03T13:50:58.248Z,5.03
2017-08-03T13:53:25.453Z,4.97
2017-08-03T13:55:52.661Z,4.63
2017-08-03T13:58:19.870Z,4.20
2017-08-03T14:00:48.895Z,4.37
2017-08-03T14:03:16.100Z,4.27
2017-08-03T14:05:43.312Z,4.27
2017-08-03T14:08:10.516Z,4.47
2017-08-03T14:10:37.729Z,4.70
2017-08-03T14:13:04.958Z,4.60
2017-08-03T14:15:32.166Z,4.30
2017-08-03T14:17:59.389Z,5.13
2017-08-03T14:20:26.593Z,4.87
2017-08-03T14:22:53.793Z,4.90
2017-08-03T14:25:21.026Z,5.50
2017-08-03T14:27:48.233Z,5.03
2017-08-03T14:30:16.384Z,5.73
2017-08-03T14:32:43.581Z,4.43
2017-08-03T14:35:10.810Z,3.90
2017-08-03T14:37:38.042Z,4.37
2017-08-03T14:40:05.250Z,4.03
2017-08-03T14:42:33.393Z,4.33
2017-08-03T14:45:00.599Z,4.70
2017-08-03T14:47:27.802Z,3.67
2017-08-03T14:49:55.713Z,4.37
2017-08-03T14:52:22.913Z,3.93
2017-08-03T14:54:51.080Z,4.60
2017-08-03T14:57:18.284Z,3.93
2017-08-03T14:59:45.489Z,4.20
2017-08-03T15:02:12.716Z,3.70
2017-08-03T15:04:39.938Z,4.40
2017-08-03T15:07:07.141Z,3.87
2017-08-03T15:09:34.348Z,4.53
2017-08-03T15:12:01.548Z,4.27
2017-08-03T15:14:28.768Z,4.57
2017-08-03T15:16:55.980Z,5.13
2017-08-03T15:19:23.201Z,4.93
2017-08-03T15:21:50.410Z,3.90
2017-08-03T15:24:17.622Z,4.63
2017-08-03T15:26:44.816Z,9.37
2017-08-03T15:29:12.959Z,4.20
2017-08-03T15:31:40.204Z,4.30
2017-08-03T15:34:07.424Z,4.40
2017-08-03T15:36:34.660Z,4.80
2017-08-03T15:39:01.865Z,5.37
2017-08-03T15:41:29.101Z,5.67
2017-08-03T15:43:56.308Z,4.70
2017-08-03T15:46:23.542Z,4.77
2017-08-03T15:48:50.744Z,4.47
2017-08-03T15:51:17.953Z,5.03
2017-08-03T15:53:45.178Z,4.57
2017-08-03T15:56:12.382Z,5.00
2017-08-03T15:58:39.641Z,5.27
2017-08-03T16:01:06.845Z,6.43
2017-08-03T16:03:34.061Z,5.53
2017-08-03T16:06:01.293Z,5.30
2017-08-03T16:08:28.533Z,6.37
2017-08-03T16:10:55.745Z,4.53
2017-08-03T16:13:22.960Z,5.43
2017-08-03T16:15:50.198Z,4.43
2017-08-03T16:18:17.425Z,5.57
2017-08-03T16:20:44.633Z,4.10
2017-08-03T16:23:11.667Z,5.00
2017-08-03T16:25:39.801Z,4.50
2017-08-03T16:28:07.013Z,4.77
2017-08-03T16:30:34.221Z,4.47
2017-08-03T16:33:02.353Z,5.50
2017-08-03T16:35:29.569Z,5.50
2017-08-03T16:37:58.339Z,5.13
2017-08-03T16:40:25.555Z,9.57
2017-08-03T16:42:52.785Z,5.70
2017-08-03T16:45:20.960Z,6.13
2017-08-03T16:47:48.157Z,5.60
2017-08-03T16:50:15.370Z,6.67
2017-08-03T16:52:42.578Z,5.73
2017-08-03T16:55:09.804Z,5.10
2017-08-03T16:57:37.976Z,5.63
2017-08-03T17:00:05.184Z,4.80
2017-08-03T17:02:32.388Z,5.07
2017-08-03T17:04:59.598Z,5.80
2017-08-03T17:07:26.817Z,5.13
2017-08-03T17:09:54.028Z,5.20
2017-08-03T17:12:23.237Z,5.13
2017-08-03T17:14:50.487Z,5.90
2017-08-03T17:17:18.654Z,5.83
2017-08-03T17:19:45.870Z,5.23
2017-08-03T17:22:13.088Z,4.50
2017-08-03T17:24:40.292Z,5.20
2017-08-03T17:27:07.509Z,5.43
2017-08-03T17:29:34.813Z,5.03
2017-08-03T17:32:02.992Z,4.87
2017-08-03T17:34:30.198Z,6.13
2017-08-03T17:36:57.400Z,5.03
2017-08-03T17:39:24.606Z,5.40
2017-08-03T17:41:51.812Z,5.43
2017-08-03T17:44:19.016Z,6.30
2017-08-03T17:46:48.181Z,6.20
2017-08-03T17:49:15.388Z,6.17
2017-08-03T17:51:42.593Z,6.50
2017-08-03T17:54:09.846Z,5.90
2017-08-03T17:56:37.060Z,6.10
2017-08-03T17:59:04.281Z,5.53
2017-08-03T18:01:31.530Z,5.40
2017-08-03T18:03:58.736Z,6.23
2017-08-03T18:06:25.961Z,7.00
2017-08-03T18:08:53.227Z,6.80
2017-08-03T18:11:20.448Z,6.10
2017-08-03T18:13:49.637Z,6.77
2017-08-03T18:16:16.865Z,6.17
2017-08-03T18:18:44.074Z,6.50
2017-08-03T18:21:13.248Z,5.90
2017-08-03T18:23:40.460Z,7.00
2017-08-03T18:26:07.666Z,6.90
2017-08-03T18:28:34.864Z,6.13
2017-08-03T18:31:02.079Z,7.73
2017-08-03T18:33:31.240Z,7.40
2017-08-03T18:36:05.312Z,8.47
2017-08-03T18:38:32.590Z,6.73
2017-08-03T18:41:01.564Z,6.77
2017-08-03T18:43:28.869Z,6.90
2017-08-03T18:45:56.092Z,6.13
2017-08-03T18:48:23.318Z,6.37
2017-08-03T18:50:50.545Z,8.37
2017-08-03T18:53:17.780Z,6.40
2017-08-03T18:55:45.021Z,5.37
2017-08-03T18:58:12.255Z,6.40
2017-08-03T19:00:40.229Z,7.07
2017-08-03T19:03:07.432Z,6.30
2017-08-03T19:05:34.669Z,7.70
2017-08-03T19:08:01.946Z,7.37
2017-08-03T19:10:29.182Z,6.90
2017-08-03T19:12:56.418Z,6.73
2017-08-03T19:15:23.644Z,6.83
2017-08-03T19:17:51.809Z,5.93
2017-08-03T19:20:19.029Z,6.83
2017-08-03T19:22:46.325Z,6.27
2017-08-03T19:25:13.527Z,7.00
2017-08-03T19:27:40.729Z,6.80
2017-08-03T19:30:07.932Z,6.90
2017-08-03T19:32:35.145Z,6.93
2017-08-03T19:35:02.358Z,7.10
2017-08-03T19:37:29.574Z,6.73
2017-08-03T19:39:56.821Z,6.63
2017-08-03T19:42:24.033Z,7.20
2017-08-03T19:44:51.308Z,7.73
2017-08-03T19:47:18.577Z,6.50
2017-08-03T19:49:45.865Z,7.50
2017-08-03T19:52:13.087Z,6.50
2017-08-03T19:54:40.344Z,6.80
2017-08-03T19:57:07.643Z,6.60
2017-08-03T19:59:34.869Z,7.17
2017-08-03T20:02:03.052Z,7.97
2017-08-03T20:04:30.266Z,6.33
2017-08-03T20:07:03.007Z,6.50
2017-08-03T20:09:35.782Z,6.20
2017-08-03T20:12:02.772Z,6.80
2017-08-03T20:14:29.998Z,8.00
2017-08-03T20:16:57.213Z,6.47
2017-08-03T20:19:24.289Z,6.63
2017-08-03T20:21:51.499Z,6.43
2017-08-03T20:24:18.705Z,6.80
2017-08-03T20:26:45.941Z,6.87
2017-08-03T20:29:13.156Z,6.20
2017-08-03T20:31:40.442Z,5.57
2017-08-03T20:34:07.472Z,7.27
2017-08-03T20:36:34.680Z,7.87
2017-08-03T20:39:01.899Z,6.60
2017-08-03T20:41:29.145Z,5.63
2017-08-03T20:43:58.306Z,5.87
2017-08-03T20:46:25.509Z,5.93
2017-08-03T20:48:54.739Z,6.57
2017-08-03T20:51:21.953Z,5.77
2017-08-03T20:53:49.158Z,5.60
2017-08-03T20:56:17.318Z,6.70
2017-08-03T20:58:45.182Z,5.90
2017-08-03T21:01:12.410Z,6.30
2017-08-03T21:03:39.636Z,6.20
2017-08-03T21:06:06.860Z,6.83
2017-08-03T21:08:34.060Z,6.20
2017-08-03T21:11:01.297Z,7.57
2017-08-03T21:13:28.517Z,6.60
2017-08-03T21:15:55.733Z,6.50
2017-08-03T21:18:22.964Z,6.20
2017-08-03T21:20:50.238Z,7.30
2017-08-03T21:23:17.453Z,7.10
2017-08-03T21:25:44.672Z,6.90
2017-08-03T21:28:12.821Z,6.63
2017-08-03T21:30:40.044Z,7.90
2017-08-03T21:33:07.244Z,5.97
2017-08-03T21:35:34.467Z,7.60
2017-08-03T21:38:01.674Z,8.33
2017-08-03T21:40:28.886Z,7.43
2017-08-03T21:42:56.089Z,7.63
2017-08-03T21:45:23.296Z,8.20
2017-08-03T21:47:50.516Z,7.60
2017-08-03T21:50:17.729Z,6.87
2017-08-03T21:52:46.888Z,7.93
2017-08-03T21:55:14.111Z,6.37
2017-08-03T21:57:41.325Z,7.07
2017-08-03T22:00:09.465Z,6.77
2017-08-03T22:02:36.693Z,7.40
2017-08-03T22:05:03.952Z,7.23
2017-08-03T22:07:31.156Z,7.13
2017-08-03T22:09:58.376Z,6.87
2017-08-03T22:12:25.582Z,7.07
2017-08-03T22:14:52.809Z,8.03
2017-08-03T22:17:20.008Z,6.63
2017-08-03T22:19:47.235Z,6.97
2017-08-03T22:22:14.449Z,6.37
2017-08-03T22:24:42.596Z,7.37
2017-08-03T22:27:09.808Z,7.10
2017-08-03T22:29:37.017Z,6.40
2017-08-03T22:32:06.189Z,6.57
2017-08-03T22:34:33.397Z,8.00
2017-08-03T22:37:00.624Z,6.83
2017-08-03T22:39:28.763Z,8.03
2017-08-03T22:41:55.994Z,7.73
2017-08-03T22:44:23.196Z,7.80
2017-08-03T22:46:51.336Z,6.90
2017-08-03T22:49:18.532Z,8.00
2017-08-03T22:51:45.728Z,7.40
2017-08-03T22:54:12.953Z,6.57
2017-08-03T22:56:40.157Z,7.87
2017-08-03T22:59:07.362Z,7.73
2017-08-03T23:01:34.576Z,7.73
2017-08-03T23:04:02.715Z,7.47
2017-08-03T23:06:29.939Z,7.73
2017-08-03T23:08:57.147Z,6.97
2017-08-03T23:11:24.384Z,7.70
2017-08-03T23:13:51.588Z,7.77
2017-08-03T23:16:18.788Z,8.07
2017-08-03T23:18:45.996Z,7.20
2017-08-03T23:21:14.135Z,7.87
2017-08-03T23:23:41.345Z,7.90
2017-08-03T23:26:08.549Z,8.43
2017-08-03T23:28:35.761Z,8.83
2017-08-03T23:31:02.974Z,9.07
2017-08-03T23:33:30.204Z,8.00
2017-08-03T23:35:57.408Z,7.13
2017-08-03T23:38:25.582Z,8.00
2017-08-03T23:40:52.785Z,7.07
2017-08-03T23:43:20.010Z,7.43
2017-08-03T23:45:47.241Z,8.13
2017-08-03T23:48:14.450Z,7.60
2017-08-03T23:50:41.657Z,7.67
2017-08-03T23:53:08.860Z,7.40
2017-08-03T23:55:36.068Z,7.20
2017-08-03T23:58:04.213Z,7.70
